Airfield :
LOGIN :

Register | Disclaimer

   EN    FR    IT 

 










Legend :    VFR   Marginal VFR   IFR   Intensive IFR   Very Intensive IFR
Visi :
Ceiling :
>= 8 km
>= 3000ft
5 to 8 km
1000 to 3000 ft
1500m to 5 km
500 to 1000 ft
800 to 1500m
200 to 500 ft
< 800m
< 200 ft
Symbols :   Thunderstorms  Fog  Heavy snow  Heavy precipitations  Wind > 20 kt
SIGMETs :     Misc.  Thunderstorms  Icing  Turbulence  Mountain Waves  Volcanic Ashes






- Airport Elevation : 358 ft


EGTC - Cranfield

CURRENT METAR :
  • 181120Z 03015KT 3500 RA SCT005 BKN018 11/11 Q1014

EXPIRED METARs :
  • 181050Z 03018G29KT 3500 RA FEW004 BKN019 11/11 Q1014
  • 181020Z 03015KT 5000 -RA FEW007 BKN021 12/11 Q1014
  • 180950Z 02018KT 5000 -RA FEW007 BKN026 12/12 Q1014
  • 180920Z 03016KT 6000 -RA FEW008 BKN031 11/11 Q1015
  • 180850Z 03016KT 5000 -RA FEW007 BKN024 12/11 Q1015

TAF AMD TAF EGTC
Valid from the 18 at 09:00 until the 18 at 18:00 UTC


180903Z 1809/1818 02014KT 9999 BKN015
TEMPO 1809/1818 6000 RA BKN010
PROB40
TEMPO 1809/1818 01018G28KT 3000 +SHRA BKN004 BKN045CB



MET'MAP, your aeronautical weather chart ! - Copyright ORBIFLY December 2007 - Disclaimer

ORBIFLY MET'MAP TEAM :

Programming & Development : Alexandra Zaïnal
Concept & original design : Baudouin d'Aumeries
Assistance for programming : Marc-Olivier Méhu
Technical & hardware support : Manuel Goepfert

Contact : metmap@orbifly.com




SOURCES & CREDITS :

   NOAA